createdAt,value
2018-06-08T00:01:32.056Z,14.60
2018-06-08T00:06:23.872Z,15.33
2018-06-08T00:08:53.148Z,14.67
2018-06-08T00:11:22.594Z,14.83
2018-06-08T00:13:51.861Z,14.37
2018-06-08T00:16:20.985Z,14.30
2018-06-08T00:18:50.244Z,15.50
2018-06-08T00:21:19.569Z,14.93
2018-06-08T00:23:48.896Z,15.33
2018-06-08T00:26:18.253Z,15.40
2018-06-08T00:28:47.533Z,15.27
2018-06-08T00:31:16.716Z,15.47
2018-06-08T00:33:46.024Z,14.67
2018-06-08T00:36:15.404Z,14.97
2018-06-08T00:38:44.680Z,14.70
2018-06-08T00:41:13.899Z,14.23
2018-06-08T00:43:43.192Z,14.47
2018-06-08T00:46:12.505Z,15.07
2018-06-08T00:48:41.884Z,15.50
2018-06-08T00:51:11.058Z,14.67
2018-06-08T00:53:40.376Z,14.63
2018-06-08T00:56:19.543Z,14.33
2018-06-08T00:58:48.782Z,14.67
2018-06-08T01:01:18.179Z,13.93
2018-06-08T01:03:47.528Z,14.00
2018-06-08T01:06:16.925Z,13.83
2018-06-08T01:08:46.265Z,13.23
2018-06-08T01:11:15.524Z,13.93
2018-06-08T01:13:44.976Z,12.37
2018-06-08T01:16:14.167Z,13.17
2018-06-08T01:18:43.393Z,13.07
2018-06-08T01:21:12.620Z,12.87
2018-06-08T01:23:41.935Z,12.30
2018-06-08T01:26:11.337Z,14.07
2018-06-08T01:28:40.697Z,13.00
2018-06-08T01:31:09.908Z,12.43
2018-06-08T01:33:39.139Z,12.63
2018-06-08T01:36:08.510Z,12.13
2018-06-08T01:38:37.832Z,12.03
2018-06-08T01:41:07.100Z,12.27
2018-06-08T01:43:36.301Z,12.30
2018-06-08T01:46:05.576Z,12.10
2018-06-08T01:48:34.704Z,13.33
2018-06-08T01:51:04.056Z,14.23
2018-06-08T01:53:33.228Z,13.57
2018-06-08T01:56:02.552Z,14.00
2018-06-08T01:58:31.780Z,12.47
2018-06-08T02:01:00.932Z,12.20
2018-06-08T02:03:30.233Z,11.70
2018-06-08T02:05:59.317Z,12.40
2018-06-08T02:08:28.621Z,11.63
2018-06-08T02:10:57.948Z,12.60
2018-06-08T02:13:27.096Z,11.77
2018-06-08T02:15:56.392Z,11.77
2018-06-08T02:18:25.343Z,11.10
2018-06-08T02:20:54.582Z,11.17
2018-06-08T02:23:23.929Z,10.87
2018-06-08T02:25:53.144Z,11.70
2018-06-08T02:28:22.507Z,12.23
2018-06-08T02:30:51.728Z,13.83
2018-06-08T02:33:20.952Z,14.13
2018-06-08T02:35:50.289Z,13.27
2018-06-08T02:38:19.451Z,12.57
2018-06-08T02:40:48.780Z,12.57
2018-06-08T02:43:17.916Z,13.03
2018-06-08T02:45:47.123Z,11.67
2018-06-08T02:48:16.423Z,12.07
2018-06-08T02:50:45.638Z,12.73
2018-06-08T02:53:14.703Z,13.97
2018-06-08T02:55:43.672Z,14.50
2018-06-08T02:58:12.600Z,14.83
2018-06-08T03:00:41.864Z,15.63
2018-06-08T03:03:11.096Z,14.37
2018-06-08T03:05:40.412Z,13.77
2018-06-08T03:08:09.632Z,14.40
2018-06-08T03:10:38.969Z,13.83
2018-06-08T03:13:08.252Z,12.47
2018-06-08T03:15:37.501Z,12.67
2018-06-08T03:18:06.852Z,12.53
2018-06-08T03:20:36.048Z,12.93
2018-06-08T03:23:05.324Z,13.27
2018-06-08T03:25:34.569Z,13.13
2018-06-08T03:28:03.604Z,12.57
2018-06-08T03:30:32.905Z,13.70
2018-06-08T03:33:02.069Z,13.07
2018-06-08T03:35:31.353Z,13.57
2018-06-08T03:38:00.684Z,13.17
2018-06-08T03:40:30.005Z,14.23
2018-06-08T03:42:59.319Z,14.07
2018-06-08T03:45:28.609Z,13.87
2018-06-08T03:47:57.908Z,14.57
2018-06-08T03:50:27.129Z,13.50
2018-06-08T03:52:56.455Z,13.77
2018-06-08T03:55:25.656Z,13.77
2018-06-08T03:57:54.937Z,13.47
2018-06-08T04:00:24.165Z,12.13
2018-06-08T04:02:53.388Z,12.47
2018-06-08T04:05:23.093Z,14.10
2018-06-08T04:07:52.388Z,14.93
2018-06-08T04:10:21.794Z,13.83
2018-06-08T04:12:51.054Z,15.27
2018-06-08T04:15:20.344Z,16.13
2018-06-08T04:17:49.608Z,14.97
2018-06-08T04:20:18.880Z,14.40
2018-06-08T04:22:48.213Z,15.13
2018-06-08T04:25:17.452Z,11.67
2018-06-08T04:27:46.780Z,11.20
2018-06-08T04:30:16.072Z,12.30
2018-06-08T04:32:45.402Z,10.63
2018-06-08T04:35:14.767Z,11.47
2018-06-08T04:37:44.105Z,11.10
2018-06-08T04:40:13.224Z,10.73
2018-06-08T04:42:42.443Z,10.43
2018-06-08T04:45:11.777Z,11.37
2018-06-08T04:47:41.105Z,11.93
2018-06-08T04:50:10.232Z,11.03
2018-06-08T04:52:39.454Z,10.33
2018-06-08T04:55:08.712Z,10.70
2018-06-08T04:57:37.961Z,10.43
2018-06-08T05:00:07.260Z,10.60
2018-06-08T05:02:36.596Z,10.93
2018-06-08T05:05:05.864Z,9.03
2018-06-08T05:07:35.126Z,9.97
2018-06-08T05:10:04.464Z,10.43
2018-06-08T05:12:33.725Z,10.97
2018-06-08T05:15:02.803Z,10.97
2018-06-08T05:17:31.737Z,9.50
2018-06-08T05:20:00.912Z,9.73
2018-06-08T05:22:30.096Z,10.53
2018-06-08T05:24:59.347Z,10.17
2018-06-08T05:27:28.529Z,10.60
2018-06-08T05:29:57.796Z,9.00
2018-06-08T05:32:27.016Z,10.60
2018-06-08T05:34:56.388Z,9.13
2018-06-08T05:37:25.446Z,10.70
2018-06-08T05:39:54.836Z,9.47
2018-06-08T05:42:24.064Z,8.90
2018-06-08T05:44:53.084Z,9.13
2018-06-08T05:47:22.169Z,8.70
2018-06-08T05:49:51.537Z,9.73
2018-06-08T05:52:20.961Z,9.00
2018-06-08T05:54:50.103Z,8.90
2018-06-08T05:57:19.032Z,8.93
2018-06-08T05:59:48.185Z,9.77
2018-06-08T06:02:17.493Z,8.57
2018-06-08T06:04:46.905Z,9.20
2018-06-08T06:07:16.074Z,9.00
2018-06-08T06:09:45.228Z,8.77
2018-06-08T06:12:14.387Z,7.93
2018-06-08T06:14:43.661Z,8.10
2018-06-08T06:17:12.971Z,9.63
2018-06-08T06:19:42.211Z,9.20
2018-06-08T06:22:11.520Z,9.13
2018-06-08T06:24:40.552Z,7.50
2018-06-08T06:27:09.544Z,9.03
2018-06-08T06:29:38.544Z,8.67
2018-06-08T06:32:07.824Z,8.77
2018-06-08T06:34:37.153Z,8.60
2018-06-08T06:37:06.480Z,7.83
2018-06-08T06:39:35.787Z,7.83
2018-06-08T06:42:05.130Z,7.20
2018-06-08T06:44:34.518Z,7.40
2018-06-08T06:47:03.942Z,7.50
2018-06-08T06:49:33.402Z,7.30
2018-06-08T06:52:02.805Z,7.50
2018-06-08T06:54:32.315Z,7.23
2018-06-08T06:57:01.742Z,8.10
2018-06-08T06:59:31.136Z,8.00
2018-06-08T07:02:00.579Z,7.10
2018-06-08T07:04:29.988Z,7.30
2018-06-08T07:06:59.375Z,7.00
2018-06-08T07:09:28.759Z,7.53
2018-06-08T07:11:58.205Z,7.70
2018-06-08T07:14:27.644Z,7.90
2018-06-08T07:16:56.631Z,7.07
2018-06-08T07:19:25.607Z,7.60
2018-06-08T07:21:54.565Z,7.17
2018-06-08T07:24:23.548Z,7.50
2018-06-08T07:26:52.592Z,6.90
2018-06-08T07:29:21.589Z,7.67
2018-06-08T07:31:50.624Z,7.23
2018-06-08T07:34:19.533Z,6.90
2018-06-08T07:36:48.480Z,7.10
2018-06-08T07:39:17.512Z,8.73
2018-06-08T07:41:46.464Z,6.70
2018-06-08T07:44:16.525Z,7.17
2018-06-08T07:46:45.776Z,7.57
2018-06-08T07:49:14.836Z,8.20
2018-06-08T07:51:43.840Z,7.93
2018-06-08T07:54:12.873Z,7.57
2018-06-08T07:56:41.873Z,6.33
2018-06-08T07:59:10.872Z,7.57
2018-06-08T08:01:40.454Z,6.83
2018-06-08T08:04:09.780Z,11.83
2018-06-08T08:06:38.704Z,84.93
2018-06-08T08:09:09.872Z,73.37
2018-06-08T08:11:38.953Z,7.07
2018-06-08T08:14:08.272Z,6.57
2018-06-08T08:16:37.660Z,7.43
2018-06-08T08:19:06.717Z,6.73
2018-06-08T08:21:36.192Z,7.13
2018-06-08T08:24:05.584Z,7.17
2018-06-08T08:26:34.912Z,7.30
2018-06-08T08:29:04.316Z,6.67
2018-06-08T08:31:33.648Z,7.70
2018-06-08T08:34:02.588Z,6.60
2018-06-08T08:36:31.637Z,6.60
2018-06-08T08:39:00.716Z,7.13
2018-06-08T08:41:29.849Z,7.40
2018-06-08T08:43:58.777Z,7.03
2018-06-08T08:46:27.795Z,7.30
2018-06-08T08:48:56.757Z,6.93
2018-06-08T08:51:25.781Z,7.10
2018-06-08T08:53:54.908Z,6.70
2018-06-08T08:56:23.836Z,7.17
2018-06-08T08:58:52.800Z,7.00
2018-06-08T09:01:21.799Z,6.77
2018-06-08T09:03:50.738Z,7.23
2018-06-08T09:06:19.732Z,6.77
2018-06-08T09:08:48.712Z,6.93
2018-06-08T09:11:17.793Z,17.87
2018-06-08T09:13:46.846Z,9.53
2018-06-08T09:16:15.837Z,7.63
2018-06-08T09:18:44.819Z,6.80
2018-06-08T09:21:13.813Z,7.33
2018-06-08T09:23:42.792Z,6.60
2018-06-08T09:26:11.724Z,6.70
2018-06-08T09:28:41.068Z,6.67
2018-06-08T09:31:10.456Z,6.23
2018-06-08T09:33:39.755Z,6.60
2018-06-08T09:36:09.207Z,6.87
2018-06-08T09:38:38.630Z,7.17
2018-06-08T09:41:07.844Z,7.07
2018-06-08T09:43:37.208Z,7.57
2018-06-08T09:46:06.434Z,6.83
2018-06-08T09:48:35.397Z,6.67
2018-06-08T09:51:04.510Z,6.00
2018-06-08T09:53:33.848Z,8.60
2018-06-08T09:56:03.208Z,6.70
2018-06-08T09:58:32.456Z,6.27
2018-06-08T10:01:01.824Z,5.97
2018-06-08T10:03:31.236Z,6.40
2018-06-08T10:06:00.529Z,6.20
2018-06-08T10:08:29.855Z,6.17
2018-06-08T10:10:59.081Z,5.93
2018-06-08T10:13:28.090Z,6.17
2018-06-08T10:15:57.039Z,6.60
2018-06-08T10:18:25.963Z,6.07
2018-06-08T10:20:55.073Z,6.40
2018-06-08T10:23:24.076Z,6.03
2018-06-08T10:25:53.032Z,6.53
2018-06-08T10:28:21.964Z,7.60
2018-06-08T10:30:50.903Z,8.20
2018-06-08T10:33:19.896Z,6.50
2018-06-08T10:35:51.735Z,6.50
2018-06-08T10:38:20.759Z,7.03
2018-06-08T10:40:49.699Z,6.43
2018-06-08T10:43:18.697Z,6.33
2018-06-08T10:45:47.765Z,7.00
2018-06-08T10:48:16.731Z,6.53
2018-06-08T10:50:45.727Z,6.03
2018-06-08T10:53:14.776Z,6.53
2018-06-08T10:55:43.821Z,6.40
2018-06-08T10:58:12.764Z,6.27
2018-06-08T11:00:41.701Z,6.13
2018-06-08T11:03:10.749Z,6.33
2018-06-08T11:05:39.676Z,6.30
2018-06-08T11:08:08.713Z,6.53
2018-06-08T11:10:37.713Z,6.73
2018-06-08T11:13:06.744Z,6.17
2018-06-08T11:15:35.807Z,6.90
2018-06-08T11:18:04.788Z,6.53
2018-06-08T11:20:33.781Z,6.13
2018-06-08T11:23:02.715Z,7.07
2018-06-08T11:25:31.705Z,6.47
2018-06-08T11:28:00.693Z,6.60
2018-06-08T11:30:29.676Z,6.93
2018-06-08T11:32:58.615Z,12.90
2018-06-08T11:35:27.626Z,6.23
2018-06-08T11:37:56.567Z,7.57
2018-06-08T11:40:25.552Z,6.67
2018-06-08T11:42:54.569Z,6.30
2018-06-08T11:45:23.649Z,6.20
2018-06-08T11:47:52.596Z,7.40
2018-06-08T11:50:21.783Z,6.70
2018-06-08T11:52:50.780Z,6.23
2018-06-08T11:55:19.971Z,5.90
2018-06-08T11:57:49.085Z,6.40
2018-06-08T12:00:18.076Z,7.07
2018-06-08T12:02:47.037Z,7.07
2018-06-08T12:05:16.021Z,6.40
2018-06-08T12:07:45.016Z,6.93
2018-06-08T12:10:13.973Z,6.57
2018-06-08T12:12:43.424Z,7.03
2018-06-08T12:15:12.477Z,7.10
2018-06-08T12:17:41.633Z,6.50
2018-06-08T12:20:10.717Z,6.47
2018-06-08T12:22:39.727Z,6.37
2018-06-08T12:25:08.664Z,6.47
2018-06-08T12:27:37.600Z,6.97
2018-06-08T12:30:06.689Z,6.77
2018-06-08T12:32:35.768Z,6.93
2018-06-08T12:35:04.776Z,7.30
2018-06-08T12:37:33.790Z,6.70
2018-06-08T12:40:02.737Z,7.60
2018-06-08T12:42:31.764Z,8.13
2018-06-08T12:45:00.800Z,7.27
2018-06-08T12:47:29.989Z,6.70
2018-06-08T12:49:58.980Z,7.27
2018-06-08T12:52:27.916Z,7.30
2018-06-08T12:54:56.965Z,6.77
2018-06-08T12:57:25.947Z,7.57
2018-06-08T12:59:55.736Z,6.97
2018-06-08T13:02:24.824Z,7.40
2018-06-08T13:04:53.752Z,8.07
2018-06-08T13:07:22.800Z,7.30
2018-06-08T13:09:51.794Z,7.30
2018-06-08T13:12:20.688Z,8.07
2018-06-08T13:14:49.620Z,7.23
2018-06-08T13:17:18.697Z,7.50
2018-06-08T13:19:47.681Z,6.90
2018-06-08T13:22:16.665Z,7.97
2018-06-08T13:24:45.642Z,7.43
2018-06-08T13:27:14.641Z,7.60
2018-06-08T13:29:43.660Z,7.53
2018-06-08T13:32:12.741Z,8.30
2018-06-08T13:34:41.809Z,8.00
2018-06-08T13:37:10.756Z,8.30
2018-06-08T13:39:39.714Z,8.13
2018-06-08T13:42:08.712Z,7.77
2018-06-08T13:44:37.756Z,8.03
2018-06-08T13:47:06.813Z,8.50
2018-06-08T13:49:35.893Z,8.30
2018-06-08T13:52:04.914Z,8.63
2018-06-08T13:54:33.847Z,9.03
2018-06-08T13:57:02.904Z,8.93
2018-06-08T13:59:31.884Z,8.77
2018-06-08T14:02:00.941Z,8.50
2018-06-08T14:04:29.871Z,8.23
2018-06-08T14:06:58.792Z,8.50
2018-06-08T14:09:27.847Z,8.57
2018-06-08T14:11:57.172Z,7.60
2018-06-08T14:14:26.166Z,7.80
2018-06-08T14:16:55.496Z,7.37
2018-06-08T14:19:24.504Z,8.27
2018-06-08T14:21:53.736Z,8.20
2018-06-08T14:24:23.000Z,9.67
2018-06-08T14:26:52.324Z,8.70
2018-06-08T14:29:21.564Z,9.27
2018-06-08T14:31:50.780Z,9.53
2018-06-08T14:34:20.108Z,10.10
2018-06-08T14:36:49.437Z,9.80
2018-06-08T14:39:18.713Z,10.57
2018-06-08T14:41:48.041Z,11.10
2018-06-08T14:44:17.466Z,10.80
2018-06-08T14:46:47.096Z,10.57
2018-06-08T14:49:16.800Z,10.87
2018-06-08T14:51:46.284Z,11.17
2018-06-08T14:54:15.386Z,10.60
2018-06-08T14:56:44.312Z,9.97
2018-06-08T14:59:13.392Z,10.70
2018-06-08T15:01:42.372Z,10.10
2018-06-08T15:04:11.307Z,10.57
2018-06-08T15:06:40.346Z,10.67
2018-06-08T15:09:09.759Z,10.70
2018-06-08T15:11:38.820Z,10.60
2018-06-08T15:14:07.755Z,11.47
2018-06-08T15:16:36.740Z,10.80
2018-06-08T15:19:05.748Z,10.57
2018-06-08T15:21:34.684Z,10.30
2018-06-08T15:24:03.760Z,11.50
2018-06-08T15:26:32.800Z,12.40
2018-06-08T15:29:01.824Z,11.30
2018-06-08T15:31:30.775Z,10.97
2018-06-08T15:33:59.756Z,10.47
2018-06-08T15:36:29.201Z,11.30
2018-06-08T15:38:58.466Z,11.00
2018-06-08T15:41:27.688Z,11.20
2018-06-08T15:43:56.651Z,11.00
2018-06-08T15:46:25.585Z,11.00
2018-06-08T15:48:54.584Z,11.13
2018-06-08T15:51:23.972Z,10.53
2018-06-08T15:53:53.303Z,11.20
2018-06-08T15:56:22.682Z,9.97
2018-06-08T15:58:51.616Z,10.83
2018-06-08T16:01:20.944Z,10.13
2018-06-08T16:03:50.148Z,10.03
2018-06-08T16:06:19.476Z,10.50
2018-06-08T16:08:48.704Z,10.30
2018-06-08T16:11:17.999Z,10.37
2018-06-08T16:13:47.322Z,9.90
2018-06-08T16:16:16.662Z,10.87
2018-06-08T16:18:46.101Z,10.57
2018-06-08T16:21:15.460Z,11.73
2018-06-08T16:23:44.485Z,11.67
2018-06-08T16:26:13.548Z,12.77
2018-06-08T16:28:42.584Z,10.40
2018-06-08T16:31:11.578Z,10.60
2018-06-08T16:33:40.549Z,10.53
2018-06-08T16:36:09.614Z,10.27
2018-06-08T16:38:38.587Z,10.97
2018-06-08T16:41:07.604Z,11.63
2018-06-08T16:43:36.604Z,12.67
2018-06-08T16:46:05.672Z,10.83
2018-06-08T16:48:34.613Z,11.20
2018-06-08T16:51:03.612Z,15.73
2018-06-08T16:53:32.564Z,13.57
2018-06-08T16:56:01.489Z,12.17
2018-06-08T16:58:30.560Z,12.17
2018-06-08T17:00:59.548Z,10.50
2018-06-08T17:03:28.563Z,10.23
2018-06-08T17:05:57.754Z,9.83
2018-06-08T17:08:26.856Z,10.20
2018-06-08T17:10:55.994Z,11.93
2018-06-08T17:13:25.121Z,9.97
2018-06-08T17:15:54.332Z,9.67
2018-06-08T17:18:23.556Z,10.30
2018-06-08T17:20:52.868Z,9.43
2018-06-08T17:23:22.237Z,11.30
2018-06-08T17:25:51.672Z,11.13
2018-06-08T17:28:21.024Z,9.90
2018-06-08T17:30:50.380Z,9.10
2018-06-08T17:33:19.509Z,9.63
2018-06-08T17:35:48.777Z,10.83
2018-06-08T17:38:18.185Z,10.07
2018-06-08T17:40:47.734Z,10.93
2018-06-08T17:43:17.020Z,10.63
2018-06-08T17:45:46.212Z,10.13
2018-06-08T17:48:15.595Z,9.50
2018-06-08T17:50:45.000Z,10.60
2018-06-08T17:53:14.388Z,14.03
2018-06-08T17:55:43.753Z,9.53
2018-06-08T17:58:13.081Z,9.97
2018-06-08T18:00:42.077Z,10.03
2018-06-08T18:03:11.291Z,9.20
2018-06-08T18:05:40.581Z,9.67
2018-06-08T18:08:09.916Z,9.40
2018-06-08T18:10:39.068Z,8.77
2018-06-08T18:13:08.204Z,12.97
2018-06-08T18:15:37.360Z,12.03
2018-06-08T18:18:06.709Z,10.67
2018-06-08T18:20:35.813Z,10.20
2018-06-08T18:23:05.120Z,9.60
2018-06-08T18:25:34.400Z,10.50
2018-06-08T18:28:03.589Z,9.00
2018-06-08T18:30:32.981Z,8.20
2018-06-08T18:33:02.370Z,11.00
2018-06-08T18:35:31.682Z,11.70
2018-06-08T18:38:00.957Z,10.47
2018-06-08T18:40:30.260Z,9.27
2018-06-08T18:42:59.407Z,9.30
2018-06-08T18:45:28.689Z,9.53
2018-06-08T18:47:57.895Z,9.07
2018-06-08T18:50:26.980Z,9.37
2018-06-08T18:52:56.365Z,10.57
2018-06-08T18:55:25.624Z,10.93
2018-06-08T18:57:55.249Z,10.30
2018-06-08T19:00:24.512Z,11.13
2018-06-08T19:02:53.832Z,10.20
2018-06-08T19:05:23.126Z,9.87
2018-06-08T19:07:52.400Z,9.60
2018-06-08T19:10:21.769Z,11.37
2018-06-08T19:12:51.011Z,12.30
2018-06-08T19:15:20.196Z,9.90
2018-06-08T19:17:49.388Z,10.10
2018-06-08T19:20:18.661Z,10.83
2018-06-08T19:22:47.935Z,10.73
2018-06-08T19:25:16.944Z,10.60
2018-06-08T19:27:46.146Z,10.67
2018-06-08T19:30:15.324Z,11.77
2018-06-08T19:32:44.693Z,11.20
2018-06-08T19:35:14.100Z,10.93
2018-06-08T19:37:43.300Z,11.30
2018-06-08T19:40:12.252Z,11.47
2018-06-08T19:42:41.190Z,10.97
2018-06-08T19:45:10.368Z,11.80
2018-06-08T19:47:39.560Z,10.87
2018-06-08T19:50:08.595Z,10.90
2018-06-08T19:52:37.568Z,11.37
2018-06-08T19:55:06.600Z,11.10
2018-06-08T19:57:35.712Z,11.37
2018-06-08T20:00:05.036Z,11.23
2018-06-08T20:02:34.153Z,11.73
2018-06-08T20:05:03.460Z,11.00
2018-06-08T20:07:32.580Z,10.43
2018-06-08T20:10:01.974Z,11.63
2018-06-08T20:12:31.194Z,11.57
2018-06-08T20:15:00.528Z,10.77
2018-06-08T20:17:29.472Z,11.90
2018-06-08T20:19:58.576Z,11.13
2018-06-08T20:22:27.705Z,11.00
2018-06-08T20:24:57.117Z,11.67
2018-06-08T20:27:26.508Z,10.60
2018-06-08T20:29:55.796Z,11.40
2018-06-08T20:32:24.742Z,11.90
2018-06-08T20:34:53.882Z,11.10
2018-06-08T20:37:23.065Z,9.97
2018-06-08T20:39:52.411Z,11.43
2018-06-08T20:42:21.488Z,11.20
2018-06-08T20:44:50.808Z,10.93
2018-06-08T20:47:20.177Z,11.70
2018-06-08T20:49:49.356Z,11.53
2018-06-08T20:52:18.529Z,12.27
2018-06-08T20:54:47.875Z,12.03
2018-06-08T20:57:25.305Z,11.37
2018-06-08T20:59:54.762Z,12.37
2018-06-08T21:02:24.115Z,12.03
2018-06-08T21:04:53.196Z,11.70
2018-06-08T21:07:22.989Z,12.30
2018-06-08T21:09:52.272Z,12.03
2018-06-08T21:12:21.721Z,11.97
2018-06-08T21:14:51.046Z,12.43
2018-06-08T21:17:20.456Z,11.67
2018-06-08T21:19:49.684Z,12.10
2018-06-08T21:22:18.932Z,11.47
2018-06-08T21:24:49.829Z,11.90
2018-06-08T21:27:19.768Z,11.53
2018-06-08T21:29:49.438Z,11.43
2018-06-08T21:32:18.407Z,12.00
2018-06-08T21:34:47.445Z,12.27
2018-06-08T21:37:16.529Z,12.43
2018-06-08T21:39:45.557Z,12.87
2018-06-08T21:42:14.591Z,12.33
2018-06-08T21:44:43.780Z,12.40
2018-06-08T21:47:13.020Z,12.67
2018-06-08T21:49:42.017Z,12.10
2018-06-08T21:52:11.349Z,12.30
2018-06-08T21:54:40.427Z,11.67
2018-06-08T21:57:09.356Z,12.67
2018-06-08T21:59:38.364Z,12.67
2018-06-08T22:02:07.328Z,13.17
2018-06-08T22:04:36.340Z,12.80
2018-06-08T22:07:05.351Z,12.97
2018-06-08T22:09:34.396Z,12.87
2018-06-08T22:12:03.351Z,12.67
2018-06-08T22:14:32.362Z,12.60
2018-06-08T22:17:01.386Z,12.50
2018-06-08T22:19:30.364Z,12.67
2018-06-08T22:21:59.368Z,12.73
2018-06-08T22:24:28.656Z,14.00
2018-06-08T22:26:57.832Z,12.80
2018-06-08T22:29:27.017Z,12.30
2018-06-08T22:31:56.059Z,12.57
2018-06-08T22:34:25.121Z,12.30
2018-06-08T22:36:54.209Z,12.40
2018-06-08T22:39:23.225Z,12.93
2018-06-08T22:41:52.247Z,12.07
2018-06-08T22:44:21.200Z,12.67
2018-06-08T22:46:50.256Z,14.10
2018-06-08T22:49:19.189Z,13.80
2018-06-08T22:51:48.512Z,12.13
2018-06-08T22:54:17.521Z,13.07
2018-06-08T22:56:46.680Z,12.63
2018-06-08T22:59:15.698Z,12.97
2018-06-08T23:01:44.704Z,12.47
2018-06-08T23:04:13.718Z,11.90
2018-06-08T23:06:42.716Z,11.40
2018-06-08T23:09:11.713Z,12.00
2018-06-08T23:11:40.733Z,12.07
2018-06-08T23:14:09.733Z,11.63
2018-06-08T23:16:38.768Z,11.27
2018-06-08T23:19:07.821Z,11.43
2018-06-08T23:21:36.829Z,11.80
2018-06-08T23:24:05.812Z,11.37
2018-06-08T23:26:34.774Z,11.23
2018-06-08T23:29:03.724Z,10.93
2018-06-08T23:31:32.643Z,11.50
2018-06-08T23:34:01.580Z,11.00
2018-06-08T23:36:30.568Z,10.67
2018-06-08T23:38:59.593Z,11.03
2018-06-08T23:41:28.612Z,11.83
2018-06-08T23:43:57.568Z,11.70
2018-06-08T23:46:26.568Z,11.93
2018-06-08T23:48:55.508Z,11.87
2018-06-08T23:51:24.511Z,12.23
2018-06-08T23:53:53.451Z,12.70
2018-06-08T23:56:22.518Z,12.30
2018-06-08T23:58:51.541Z,12.83
